Main page
METAR-TAF:

METAR-TAF

Airports :

Morón Air Base

Morón de la Frontera, Spain

latitude: 37-09N, longitude: 005-37W, elevation: 87 m

Current weather observation

The report was made 34 minutes ago, at 13:00 UTC
Wind 14 kt from the West/Southwest, varying between South/Southwest and West
Temperature 22°C
Humidity 43%
Pressure 1014 hPa
Visibility 10 km or more
Scattered clouds at a height of 4800 ft

METAR: LEMO 201300Z 24014KT 200V280 9999 SCT048 22/09 Q1014 NOSIG

Time: 15:34 (13:34 UTC)

Forecast

The report was made 5 hours and 34 minutes ago, at 08:00 UTC
Forecast valid from 20 at 09 UTC to 21 at 09 UTC
Wind 10 kt from the West/Southwest
Visibility 10 km or more
no clouds below 1500 m and no cumulonimbus
Probability 30% :
Temporary
from 20 at 14 UTC to 20 at 20 UTC
Wind 15 kt from the West/Southwest with gusts up to 25 kt

TAF: LEMO 200800Z 2009/2109 24010KT CAVOK TX25/2015Z TN12/2106Z PROB30 TEMPO 2014/2020 24015G25KT

Weather observations and forecasts of more than 4000 airports (METAR and TAF reports).

The available stations are represented by yellow and red dots on the map.

Hover mouse over dot to see the name of the station.

Then click to see weather observations and forecasts.

To change the map : click on the green buttons with a black cross to zoom in, on the green button with a dash to zoom out, or on the green arrows for adjacent maps.


METAR-TAF: